Time;durP1;ratioP1;P1;durP2;ratioP2;P2;SDS_P1;SDS_P2;PMS_P1;PMS_P2;Temp;Humidity;BMP_temperature;BMP_pressure;BME280_temperature;BME280_humidity;BME280_pressure;Samples;Min_cycle;Max_cycle;Signal;HPM_P1;HPM_P2
2022/04/19 00:00:47;;;;;;;1999.90;999.90;;;12.80;47.00;;;;;;5033768;28;20448;-68
2022/04/19 00:03:14;;;;;;;1999.90;999.90;;;12.80;45.00;;;;;;5033777;28;20411;-68
2022/04/19 00:05:41;;;;;;;1999.90;999.90;;;12.70;50.40;;;;;;5033375;28;20431;-68
2022/04/19 00:08:07;;;;;;;1999.90;999.90;;;12.40;49.70;;;;;;5033487;28;20530;-68
2022/04/19 00:10:34;;;;;;;1999.90;999.90;;;12.10;50.40;;;;;;5033518;28;20404;-68
2022/04/19 00:13:01;;;;;;;1999.90;999.90;;;12.00;52.30;;;;;;5033574;28;20774;-68
2022/04/19 00:15:28;;;;;;;1999.90;999.90;;;12.00;51.00;;;;;;5033265;28;20404;-68
2022/04/19 00:18:01;;;;;;;1999.90;999.90;;;12.00;53.80;;;;;;5033424;28;20446;-68
2022/04/19 00:20:28;;;;;;;1999.90;999.90;;;12.00;61.40;;;;;;5033480;28;20431;-68
2022/04/19 00:22:55;;;;;;;1999.90;999.90;;;11.80;65.10;;;;;;5033321;28;20937;-68
2022/04/19 00:25:20;;;;;;;1999.90;999.90;;;11.80;77.60;;;;;;5033148;28;20414;-68
2022/04/19 00:27:47;;;;;;;1999.90;999.90;;;11.70;83.20;;;;;;5033160;28;21055;-68
2022/04/19 00:30:13;;;;;;;1999.90;999.90;;;11.80;80.80;;;;;;5033190;28;20534;-68
2022/04/19 00:32:39;;;;;;;1999.90;999.90;;;11.80;80.10;;;;;;5033105;28;20394;-67
2022/04/19 00:35:07;;;;;;;1999.90;999.90;;;11.90;81.20;;;;;;5032974;28;20403;-68
2022/04/19 00:37:33;;;;;;;1999.90;999.90;;;11.90;85.80;;;;;;5032885;28;20429;-68
2022/04/19 00:40:01;;;;;;;1999.90;999.90;;;11.90;91.00;;;;;;5032878;28;20411;-68
2022/04/19 00:42:30;;;;;;;1999.90;999.90;;;11.90;93.20;;;;;;5033017;28;20490;-68
2022/04/19 00:45:02;;;;;;;1999.90;999.90;;;11.80;93.50;;;;;;5032681;28;20924;-68
2022/04/19 00:47:29;;;;;;;1999.90;999.90;;;11.80;95.40;;;;;;5032739;28;20872;-68
2022/04/19 00:49:54;;;;;;;1999.90;999.90;;;11.70;94.10;;;;;;5032804;28;20933;-68
2022/04/19 00:52:20;;;;;;;1999.90;999.90;;;11.70;93.30;;;;;;5032805;28;20410;-68
2022/04/19 00:54:46;;;;;;;1999.90;999.90;;;11.70;97.20;;;;;;5032515;28;20624;-68
2022/04/19 00:57:13;;;;;;;1999.90;999.90;;;11.60;99.90;;;;;;5032262;28;20223;-68
2022/04/19 00:59:39;;;;;;;1999.90;999.90;;;11.60;99.90;;;;;;5047485;22;20486;-71
2022/04/19 01:02:05;;;;;;;1999.90;999.90;;;11.50;97.60;;;;;;5032619;28;20399;-71
2022/04/19 01:04:30;;;;;;;1999.90;999.90;;;11.50;99.50;;;;;;5032206;28;20161;-71
2022/04/19 01:06:57;;;;;;;1999.90;999.90;;;11.40;99.90;;;;;;5032410;28;20205;-71
2022/04/19 01:09:24;;;;;;;1999.90;999.90;;;11.30;99.90;;;;;;5032402;28;20261;-71
2022/04/19 01:14:38;;;;;;;1999.90;999.90;;;11.00;99.90;;;;;;5032170;28;20450;-71
2022/04/19 01:17:06;;;;;;;1999.90;999.90;;;11.00;99.90;;;;;;5032302;28;20450;-71
2022/04/19 01:19:34;;;;;;;1999.90;999.90;;;10.80;99.90;;;;;;5032256;28;20465;-71
2022/04/19 01:22:00;;;;;;;1999.90;999.90;;;10.70;99.90;;;;;;5032236;28;20430;-71
2022/04/19 01:24:25;;;;;;;1999.90;999.90;;;10.60;99.90;;;;;;5031995;28;20496;-71
2022/04/19 01:26:54;;;;;;;1999.90;999.90;;;10.40;99.90;;;;;;5032152;28;20195;-71
2022/04/19 01:29:20;;;;;;;1999.90;999.90;;;10.00;99.90;;;;;;5032054;28;20693;-71
2022/04/19 01:31:46;;;;;;;1999.90;999.90;;;9.90;99.90;;;;;;5032158;28;20500;-71
2022/04/19 01:34:12;;;;;;;1999.90;999.90;;;9.90;99.90;;;;;;5031795;28;20191;-71
2022/04/19 01:36:39;;;;;;;1999.90;999.90;;;9.90;99.90;;;;;;5032047;28;20446;-71
2022/04/19 01:39:06;;;;;;;1999.90;999.90;;;9.90;99.90;;;;;;5031946;28;20216;-71
2022/04/19 01:41:31;;;;;;;1999.90;999.90;;;9.90;99.90;;;;;;5032017;28;20410;-71
2022/04/19 01:43:58;;;;;;;1999.90;999.90;;;10.00;99.90;;;;;;5031883;28;20402;-71
2022/04/19 01:46:23;;;;;;;1999.90;999.90;;;10.00;99.90;;;;;;5031793;28;20168;-71
2022/04/19 01:48:54;;;;;;;1999.90;999.90;;;9.70;99.90;;;;;;5032000;28;20515;-71
2022/04/19 01:51:21;;;;;;;1999.90;999.90;;;9.40;99.90;;;;;;5031915;28;20251;-71
2022/04/19 01:53:47;;;;;;;1999.90;999.90;;;9.40;99.90;;;;;;5031820;28;20409;-71
2022/04/19 01:56:13;;;;;;;1999.90;999.90;;;9.30;99.90;;;;;;5031568;28;20497;-71
2022/04/19 01:58:38;;;;;;;1999.90;999.90;;;9.10;99.90;;;;;;5031720;28;20536;-70
2022/04/19 02:01:04;;;;;;;1999.90;999.90;;;9.20;99.90;;;;;;5031792;28;20167;-71
2022/04/19 02:03:29;;;;;;;1999.90;999.90;;;9.10;99.90;;;;;;5031874;28;20175;-71
2022/04/19 02:05:55;;;;;;;1999.90;999.90;;;9.00;99.90;;;;;;5031501;28;20202;-71
2022/04/19 02:08:21;;;;;;;1999.90;999.90;;;8.90;99.90;;;;;;5033079;28;20210;-71
2022/04/19 02:10:47;;;;;;;1999.90;999.90;;;8.90;99.90;;;;;;5035823;28;20176;-71
2022/04/19 02:13:15;;;;;;;1999.90;999.90;;;9.00;99.90;;;;;;5035640;28;20173;-71
2022/04/19 02:15:42;;;;;;;1999.90;999.90;;;9.00;99.90;;;;;;5035417;28;20415;-71
2022/04/19 02:18:10;;;;;;;1999.90;999.90;;;9.00;99.90;;;;;;5035480;28;20597;-71
2022/04/19 02:20:36;;;;;;;1999.90;999.90;;;9.00;99.90;;;;;;5035618;28;20432;-72
2022/04/19 02:23:02;;;;;;;1999.90;999.90;;;9.20;99.90;;;;;;5035500;28;20409;-72
2022/04/19 02:25:28;;;;;;;1999.90;999.90;;;9.20;99.90;;;;;;5035503;28;20408;-72
2022/04/19 02:27:54;;;;;;;1999.90;999.90;;;9.20;99.90;;;;;;5035982;28;20544;-72
2022/04/19 02:30:20;;;;;;;1999.90;999.90;;;9.10;99.90;;;;;;5036204;28;20838;-72
2022/04/19 02:32:48;;;;;;;1999.90;999.90;;;9.00;99.90;;;;;;5036020;28;20406;-72
2022/04/19 02:35:18;;;;;;;1999.90;999.90;;;9.10;99.90;;;;;;5035857;28;20914;-72
2022/04/19 02:37:52;;;;;;;1999.90;999.90;;;9.00;99.90;;;;;;5036013;28;21018;-72
2022/04/19 02:40:20;;;;;;;1999.90;999.90;;;8.80;99.90;;;;;;5035739;28;20409;-72
2022/04/19 02:42:47;;;;;;;1999.90;999.90;;;8.70;99.90;;;;;;5035831;28;20832;-72
2022/04/19 02:45:13;;;;;;;1999.90;999.90;;;8.60;99.90;;;;;;5035557;28;20496;-72
2022/04/19 02:47:39;;;;;;;1999.90;999.90;;;8.60;99.90;;;;;;5035801;28;20439;-72
2022/04/19 02:50:05;;;;;;;1999.90;999.90;;;8.30;99.90;;;;;;5035763;28;20456;-72
2022/04/19 02:52:31;;;;;;;1999.90;999.90;;;8.20;99.90;;;;;;5035534;28;20794;-72
2022/04/19 02:54:57;;;;;;;1999.90;999.90;;;8.10;99.90;;;;;;5035284;28;20408;-72
2022/04/19 02:57:22;;;;;;;1999.90;999.90;;;8.20;99.90;;;;;;5035576;28;20452;-72
2022/04/19 02:59:48;;;;;;;1999.90;999.90;;;8.20;99.90;;;;;;5036467;28;20233;-72
2022/04/19 03:02:14;;;;;;;1999.90;999.90;;;8.30;99.90;;;;;;5036554;28;20167;-72
2022/04/19 03:04:40;;;;;;;1999.90;999.90;;;8.20;99.90;;;;;;5035425;28;20193;-72
2022/04/19 03:07:06;;;;;;;1999.90;999.90;;;8.00;99.90;;;;;;5035072;28;20462;-71
2022/04/19 03:09:32;;;;;;;1999.90;999.90;;;8.00;99.90;;;;;;5034883;28;20428;-71
2022/04/19 03:11:58;;;;;;;1999.90;999.90;;;7.90;99.90;;;;;;5035116;28;20251;-71
2022/04/19 03:14:25;;;;;;;1999.90;999.90;;;7.80;99.90;;;;;;5034547;28;20433;-71
2022/04/19 03:16:51;;;;;;;1999.90;999.90;;;7.80;99.90;;;;;;5034803;28;20223;-71
2022/04/19 03:19:17;;;;;;;1999.90;999.90;;;7.80;99.90;;;;;;5034481;28;20431;-71
2022/04/19 03:21:43;;;;;;;1999.90;999.90;;;7.80;99.90;;;;;;5034808;28;20412;-71
2022/04/19 03:29:38;;;;;;;1999.90;999.90;;;7.40;99.90;;;;;;5034929;28;20458;-71
2022/04/19 03:32:04;;;;;;;1999.90;999.90;;;7.30;99.90;;;;;;5034934;28;20436;-71
2022/04/19 03:34:30;;;;;;;1999.90;999.90;;;7.30;99.90;;;;;;5034713;28;20168;-71
2022/04/19 03:36:56;;;;;;;1999.90;999.90;;;7.30;99.90;;;;;;5034893;28;20445;-71
2022/04/19 03:39:21;;;;;;;1999.90;999.90;;;7.30;99.90;;;;;;5034834;28;20606;-71
2022/04/19 03:41:47;;;;;;;1999.90;999.90;;;7.30;99.90;;;;;;5034806;28;20170;-71
2022/04/19 03:44:13;;;;;;;1999.90;999.90;;;7.40;99.90;;;;;;5034385;28;20164;-71
2022/04/19 03:49:24;;;;;;;1999.90;999.90;;;7.40;99.90;;;;;;5033945;28;20197;-71
2022/04/19 03:51:50;;;;;;;1999.90;999.90;;;7.50;99.90;;;;;;5033968;28;20480;-71
2022/04/19 03:54:15;;;;;;;1999.90;999.90;;;7.60;99.90;;;;;;5033523;28;20500;-72
2022/04/19 03:56:41;;;;;;;1999.90;999.90;;;7.60;99.90;;;;;;5033863;28;20173;-71
2022/04/19 03:59:09;;;;;;;1999.90;999.90;;;7.60;99.90;;;;;;5033675;28;20214;-71
2022/04/19 04:01:37;;;;;;;1999.90;999.90;;;7.60;99.90;;;;;;5033717;28;20169;-71
2022/04/19 04:04:04;;;;;;;1999.90;999.90;;;7.60;99.90;;;;;;5033402;28;20405;-71
2022/04/19 04:06:30;;;;;;;1999.90;999.90;;;7.60;99.90;;;;;;5033539;28;20402;-72
2022/04/19 04:08:56;;;;;;;1999.90;999.90;;;7.60;99.90;;;;;;5033503;28;20474;-71
2022/04/19 04:11:21;;;;;;;1999.90;999.90;;;7.60;99.90;;;;;;5033480;28;20198;-71
2022/04/19 04:13:47;;;;;;;1999.90;999.90;;;7.60;99.90;;;;;;5033502;28;20177;-71
2022/04/19 04:16:13;;;;;;;1999.90;999.90;;;7.50;99.90;;;;;;5033118;28;20415;-72
2022/04/19 04:18:39;;;;;;;1999.90;999.90;;;7.50;99.90;;;;;;5033261;28;20202;-71
2022/04/19 04:21:05;;;;;;;1999.90;999.90;;;7.50;99.90;;;;;;5033447;28;20594;-71
2022/04/19 04:23:33;;;;;;;1999.90;999.90;;;7.50;99.90;;;;;;5033253;28;20420;-71
2022/04/19 04:25:59;;;;;;;1999.90;999.90;;;7.40;99.90;;;;;;5033192;28;20466;-71
2022/04/19 04:28:25;;;;;;;1999.90;999.90;;;7.40;99.90;;;;;;5033123;28;20427;-72
2022/04/19 04:30:51;;;;;;;1999.90;999.90;;;7.30;99.90;;;;;;5032439;28;20475;-71
2022/04/19 04:33:16;;;;;;;1999.90;999.90;;;7.30;99.90;;;;;;5033103;28;20457;-71
2022/04/19 04:35:42;;;;;;;1999.90;999.90;;;7.30;99.90;;;;;;5032917;28;20172;-72
2022/04/19 04:38:08;;;;;;;1999.90;999.90;;;7.30;99.90;;;;;;5032946;28;20200;-72
2022/04/19 04:40:33;;;;;;;1999.90;999.90;;;7.30;99.90;;;;;;5032972;28;20473;-71
2022/04/19 04:42:59;;;;;;;1999.90;999.90;;;7.30;99.90;;;;;;5033461;28;20181;-71
2022/04/19 04:45:26;;;;;;;1999.90;999.90;;;7.20;99.90;;;;;;5032631;28;20166;-72
2022/04/19 04:50:36;;;;;;;1999.90;999.90;;;7.20;99.90;;;;;;5033121;28;20406;-72
2022/04/19 04:53:02;;;;;;;1999.90;999.90;;;7.30;99.90;;;;;;5032781;28;20412;-71
2022/04/19 04:55:28;;;;;;;1999.90;999.90;;;7.30;99.90;;;;;;5032498;28;20179;-71
2022/04/19 04:57:57;;;;;;;1999.90;999.90;;;7.40;99.90;;;;;;5032525;28;20599;-71
2022/04/19 05:00:26;;;;;;;1999.90;999.90;;;7.40;99.90;;;;;;5032617;28;20409;-72
2022/04/19 05:02:52;;;;;;;1999.90;999.90;;;7.40;99.90;;;;;;5032603;28;20396;-71
2022/04/19 05:05:18;;;;;;;1999.90;999.90;;;7.50;99.90;;;;;;5032229;28;20423;-71
2022/04/19 05:07:43;;;;;;;1999.90;999.90;;;7.60;99.90;;;;;;5032566;28;20167;-71
2022/04/19 05:10:09;;;;;;;1999.90;999.90;;;7.60;99.90;;;;;;5032404;28;20606;-71
2022/04/19 05:12:35;;;;;;;1999.90;999.90;;;7.60;99.90;;;;;;5032390;28;20263;-71
2022/04/19 05:15:01;;;;;;;1999.90;999.90;;;7.70;99.90;;;;;;5032106;28;20394;-72
2022/04/19 05:17:27;;;;;;;1999.90;999.90;;;7.70;99.90;;;;;;5032197;28;20462;-72
2022/04/19 05:19:54;;;;;;;1999.90;999.90;;;7.80;99.90;;;;;;5032113;28;20819;-72
2022/04/19 05:22:20;;;;;;;1999.90;999.90;;;7.80;99.90;;;;;;5032321;28;20770;-72
2022/04/19 05:24:46;;;;;;;1999.90;999.90;;;7.80;99.90;;;;;;5031927;28;20412;-72
2022/04/19 05:27:12;;;;;;;1999.90;999.90;;;7.80;99.90;;;;;;5032205;28;20179;-72
2022/04/19 05:29:37;;;;;;;1999.90;999.90;;;7.80;99.90;;;;;;5032097;28;20433;-72
2022/04/19 05:32:04;;;;;;;1999.90;999.90;;;7.90;99.90;;;;;;5032155;28;20685;-72
2022/04/19 05:34:29;;;;;;;1999.90;999.90;;;7.90;99.90;;;;;;5031827;28;20162;-72
2022/04/19 05:36:55;;;;;;;1999.90;999.90;;;8.00;99.90;;;;;;5032151;28;20406;-72
2022/04/19 05:39:21;;;;;;;1999.90;999.90;;;8.00;99.90;;;;;;5032172;28;20194;-72
2022/04/19 05:41:46;;;;;;;1999.90;999.90;;;8.10;99.90;;;;;;5032223;28;20309;-72
2022/04/19 05:44:12;;;;;;;1999.90;999.90;;;8.10;99.90;;;;;;5031874;28;20159;-72
2022/04/19 05:46:38;;;;;;;1999.90;999.90;;;8.20;99.90;;;;;;5032271;28;20543;-72
2022/04/19 05:49:06;;;;;;;1999.90;999.90;;;8.30;99.90;;;;;;5032016;28;20194;-72
2022/04/19 05:51:33;;;;;;;1999.90;999.90;;;8.40;99.90;;;;;;5031993;28;20787;-72
2022/04/19 05:53:59;;;;;;;1999.90;999.90;;;8.40;99.90;;;;;;5031723;28;20463;-72
2022/04/19 05:56:25;;;;;;;1999.90;999.90;;;8.60;99.90;;;;;;5031736;28;20417;-72
2022/04/19 05:58:50;;;;;;;1999.90;999.90;;;8.70;99.90;;;;;;5031627;28;20465;-72
2022/04/19 06:01:16;;;;;;;1999.90;999.90;;;8.70;99.90;;;;;;5031870;28;20237;-72
2022/04/19 06:06:26;;;;;;;1999.90;999.90;;;8.80;99.90;;;;;;5031799;28;20647;-72
2022/04/19 06:08:53;;;;;;;1999.90;999.90;;;9.00;99.90;;;;;;5031725;28;20434;-72
2022/04/19 06:11:19;;;;;;;1999.90;999.90;;;9.10;99.90;;;;;;5031832;28;20551;-72
2022/04/19 06:13:45;;;;;;;1999.90;999.90;;;9.20;99.90;;;;;;5031634;28;20406;-72
2022/04/19 06:16:10;;;;;;;1999.90;999.90;;;9.30;99.90;;;;;;5031511;28;20190;-72
2022/04/19 06:18:37;;;;;;;1999.90;999.90;;;9.40;99.90;;;;;;5031561;28;20496;-72
2022/04/19 06:21:04;;;;;;;1999.90;999.90;;;9.50;99.90;;;;;;5031649;28;20171;-72
2022/04/19 06:23:30;;;;;;;1999.90;999.90;;;9.60;99.90;;;;;;5031725;28;20974;-72
2022/04/19 06:25:56;;;;;;;1999.90;999.90;;;9.70;99.90;;;;;;5031487;28;20405;-72
2022/04/19 06:28:22;;;;;;;1999.90;999.90;;;9.80;99.90;;;;;;5013896;28;20445;-72
2022/04/19 06:30:48;;;;;;;1999.90;999.90;;;9.90;99.90;;;;;;5031629;28;20168;-72
2022/04/19 06:33:14;;;;;;;1999.90;999.90;;;10.00;99.90;;;;;;5031604;28;20410;-72
2022/04/19 06:35:39;;;;;;;1999.90;999.90;;;10.00;99.90;;;;;;5031450;28;20172;-72
2022/04/19 06:38:05;;;;;;;1999.90;999.90;;;10.10;99.90;;;;;;5031487;28;20187;-72
2022/04/19 06:40:31;;;;;;;1999.90;999.90;;;10.20;99.90;;;;;;5031545;28;20176;-72
2022/04/19 06:42:57;;;;;;;1999.90;999.90;;;10.30;99.90;;;;;;5031593;28;20175;-72
2022/04/19 06:45:23;;;;;;;1999.90;999.90;;;10.40;99.90;;;;;;5031439;28;20403;-72
2022/04/19 06:48:02;;;;;;;1999.90;999.90;;;10.60;99.90;;;;;;5031466;28;20172;-72
2022/04/19 06:50:28;;;;;;;1999.90;999.90;;;10.80;99.90;;;;;;5031400;28;20402;-72
2022/04/19 06:52:54;;;;;;;1999.90;999.90;;;10.70;99.90;;;;;;5031394;28;20414;-72
2022/04/19 06:55:20;;;;;;;1999.90;999.90;;;10.80;99.90;;;;;;5034080;28;20410;-72
2022/04/19 06:57:49;;;;;;;1999.90;999.90;;;10.90;99.90;;;;;;5034880;28;20944;-72
2022/04/19 07:00:16;;;;;;;1999.90;999.90;;;11.00;99.90;;;;;;5050058;22;20330;-68
2022/04/19 07:02:44;;;;;;;1999.90;999.90;;;11.00;99.90;;;;;;5034883;28;20413;-68
2022/04/19 07:05:10;;;;;;;1999.90;999.90;;;11.20;99.90;;;;;;5034865;28;20813;-68
2022/04/19 07:07:39;;;;;;;1999.90;999.90;;;11.30;99.90;;;;;;5034759;28;20820;-69
2022/04/19 07:10:06;;;;;;;1999.90;999.90;;;11.40;99.90;;;;;;5034628;28;20426;-68
2022/04/19 07:12:32;;;;;;;1999.90;999.90;;;11.50;99.90;;;;;;5034645;28;21089;-68
2022/04/19 07:14:57;;;;;;;1999.90;999.90;;;11.60;99.90;;;;;;5034443;28;20434;-68
2022/04/19 07:17:23;;;;;;;1999.90;999.90;;;11.90;99.90;;;;;;5034366;28;20204;-68
2022/04/19 07:28:02;;;;;;;1999.90;999.90;;;12.00;99.90;;;;;;5034591;28;20434;-69
2022/04/19 07:30:28;;;;;;;1999.90;999.90;;;12.10;99.90;;;;;;5034468;28;20431;-68
2022/04/19 07:32:55;;;;;;;1999.90;999.90;;;12.10;99.90;;;;;;5034780;28;20406;-68
2022/04/19 07:35:21;;;;;;;1999.90;999.90;;;12.30;99.90;;;;;;5034421;28;20490;-68
2022/04/19 07:37:46;;;;;;;1999.90;999.90;;;12.30;99.90;;;;;;5034373;28;21022;-68
2022/04/19 07:40:12;;;;;;;1999.90;999.90;;;12.30;99.90;;;;;;5034579;28;20188;-68
2022/04/19 07:42:38;;;;;;;1999.90;999.90;;;12.30;99.90;;;;;;5034527;28;20179;-68
2022/04/19 07:45:04;;;;;;;1999.90;999.90;;;12.30;99.90;;;;;;5034440;28;20407;-68
2022/04/19 07:47:32;;;;;;;1999.90;999.90;;;12.20;99.90;;;;;;5034777;28;20176;-68
2022/04/19 07:49:58;;;;;;;1999.90;999.90;;;12.30;99.90;;;;;;5034164;28;20423;-68
2022/04/19 07:52:23;;;;;;;1999.90;999.90;;;12.40;99.90;;;;;;5034631;28;20411;-68
2022/04/19 07:54:49;;;;;;;1999.90;999.90;;;12.40;99.90;;;;;;5034077;28;20184;-68
2022/04/19 07:57:19;;;;;;;1999.90;999.90;;;12.60;99.90;;;;;;5034117;28;20206;-68
2022/04/19 07:59:44;;;;;;;1999.90;999.90;;;12.70;99.90;;;;;;5033559;28;20227;-68
2022/04/19 08:02:10;;;;;;;1999.90;999.90;;;12.80;99.90;;;;;;5033709;28;20404;-68
2022/04/19 08:04:35;;;;;;;1999.90;999.90;;;12.90;99.90;;;;;;5033185;28;20544;-68
2022/04/19 08:07:01;;;;;;;1999.90;999.90;;;13.00;99.90;;;;;;5032601;28;20178;-68
2022/04/19 08:09:27;;;;;;;1999.90;999.90;;;13.10;99.90;;;;;;5033500;28;20192;-68
2022/04/19 08:11:52;;;;;;;1999.90;999.90;;;13.20;99.90;;;;;;5033610;28;20453;-67
2022/04/19 08:14:19;;;;;;;1999.90;999.90;;;13.20;99.90;;;;;;5033231;28;20288;-67
2022/04/19 08:16:45;;;;;;;1999.90;999.90;;;13.20;99.90;;;;;;5033494;28;20162;-68
2022/04/19 08:19:11;;;;;;;1999.90;999.90;;;13.30;99.90;;;;;;5033505;28;20433;-68
2022/04/19 08:21:36;;;;;;;1999.90;999.90;;;13.40;99.90;;;;;;5033491;28;20479;-68
2022/04/19 08:24:03;;;;;;;1999.90;999.90;;;13.50;99.90;;;;;;5033166;28;20248;-68
2022/04/19 08:26:29;;;;;;;1999.90;999.90;;;13.50;99.90;;;;;;5033905;28;20178;-68
2022/04/19 08:28:55;;;;;;;1999.90;999.90;;;13.70;99.90;;;;;;5032332;28;20439;-67
2022/04/19 08:31:20;;;;;;;1999.90;999.90;;;14.00;99.90;;;;;;5034130;28;20492;-67
2022/04/19 08:33:46;;;;;;;1999.90;999.90;;;14.20;99.90;;;;;;5031257;28;20172;-67
2022/04/19 08:36:12;;;;;;;1999.90;999.90;;;14.30;99.90;;;;;;5032210;28;20188;-67
2022/04/19 08:38:37;;;;;;;1999.90;999.90;;;14.40;99.90;;;;;;5033105;28;20215;-67
2022/04/19 08:41:04;;;;;;;1999.90;999.90;;;14.60;99.90;;;;;;5033092;28;20176;-67
2022/04/19 08:43:30;;;;;;;1999.90;999.90;;;14.70;99.90;;;;;;5033849;28;20176;-67
2022/04/19 08:45:56;;;;;;;1999.90;999.90;;;14.70;99.90;;;;;;5035102;28;20915;-67
2022/04/19 08:48:25;;;;;;;1999.90;999.90;;;14.80;99.90;;;;;;5034057;28;20178;-67
2022/04/19 08:50:53;;;;;;;1999.90;999.90;;;14.80;99.90;;;;;;5035286;28;20178;-68
2022/04/19 08:58:47;;;;;;;1999.90;999.90;;;15.00;99.90;;;;;;5036767;28;20538;-68
2022/04/19 09:01:13;;;;;;;1999.90;999.90;;;15.00;99.90;;;;;;5034065;28;20431;-67
2022/04/19 09:03:41;;;;;;;1999.90;999.90;;;15.10;99.90;;;;;;5034043;28;20185;-67
2022/04/19 09:06:07;;;;;;;1999.90;999.90;;;15.20;99.90;;;;;;5033884;28;20408;-67
2022/04/19 09:08:32;;;;;;;1999.90;999.90;;;15.30;99.90;;;;;;5035012;28;20775;-67
2022/04/19 09:11:05;;;;;;;1999.90;999.90;;;15.40;99.90;;;;;;5015989;28;20181;-67
2022/04/19 09:13:31;;;;;;;1999.90;999.90;;;15.50;99.90;;;;;;5034074;28;20172;-68
2022/04/19 09:16:06;;;;;;;1999.90;999.90;;;15.50;99.90;;;;;;5032319;28;20419;-68
2022/04/19 09:18:34;;;;;;;1999.90;999.90;;;15.60;99.90;;;;;;5032292;28;20465;-68
2022/04/19 09:21:02;;;;;;;1999.90;999.90;;;15.80;99.90;;;;;;5033613;28;20892;-68
2022/04/19 09:23:29;;;;;;;1999.90;999.90;;;16.00;99.90;;;;;;5036132;28;20414;-68
2022/04/19 09:25:59;;;;;;;1999.90;999.90;;;16.00;99.70;;;;;;5034521;28;20409;-67
2022/04/19 09:28:26;;;;;;;1999.90;999.90;;;16.00;99.90;;;;;;5032979;28;20930;-68
2022/04/19 09:30:58;;;;;;;1999.90;999.90;;;16.10;99.90;;;;;;5034110;28;20411;-68
2022/04/19 09:33:25;;;;;;;1999.90;999.90;;;16.30;99.90;;;;;;5033589;28;20409;-68
2022/04/19 09:35:58;;;;;;;1999.90;999.90;;;16.60;98.50;;;;;;5033280;28;20750;-66
2022/04/19 09:38:34;;;;;;;1999.90;999.90;;;16.80;97.60;;;;;;5034575;28;20466;-66
2022/04/19 09:41:00;;;;;;;1999.90;999.90;;;17.10;93.30;;;;;;5032943;28;20426;-68
2022/04/19 09:43:25;;;;;;;1999.90;999.90;;;17.20;87.80;;;;;;5031173;28;20426;-67
2022/04/19 09:45:59;;;;;;;1999.90;999.90;;;17.40;79.50;;;;;;5030902;28;20176;-68
2022/04/19 09:48:35;;;;;;;1999.90;999.90;;;17.60;74.20;;;;;;5031264;28;20176;-68
2022/04/19 09:51:10;;;;;;;1999.90;999.90;;;17.80;71.10;;;;;;5031115;28;20832;-68
2022/04/19 09:53:42;;;;;;;1999.90;999.90;;;17.90;67.10;;;;;;5031681;28;20399;-69
2022/04/19 09:56:10;;;;;;;1999.90;999.90;;;18.10;66.60;;;;;;5030815;28;20414;-68
2022/04/19 09:58:38;;;;;;;1999.90;999.90;;;18.20;61.30;;;;;;5030770;28;20492;-68
2022/04/19 10:01:05;;;;;;;1999.90;999.90;;;18.30;60.60;;;;;;5031388;28;20779;-68
2022/04/19 10:09:02;;;;;;;1999.90;999.90;;;18.80;54.30;;;;;;5031596;28;20439;-68
2022/04/19 10:11:28;;;;;;;1999.90;999.90;;;18.90;53.80;;;;;;5031267;28;20418;-68
2022/04/19 10:13:55;;;;;;;1999.90;999.90;;;19.00;51.20;;;;;;5030994;28;20214;-69
2022/04/19 10:16:21;;;;;;;1999.90;999.90;;;19.20;56.20;;;;;;5030788;28;20936;-68
2022/04/19 10:18:46;;;;;;;1999.90;999.90;;;19.40;52.20;;;;;;5031068;28;20509;-68
2022/04/19 10:21:20;;;;;;;1999.90;999.90;;;19.60;46.70;;;;;;5030785;28;20176;-68
2022/04/19 10:23:46;;;;;;;1999.90;999.90;;;19.70;49.30;;;;;;5030746;28;20179;-68
2022/04/19 10:26:18;;;;;;;1999.90;999.90;;;19.80;49.10;;;;;;5030352;28;20407;-68
2022/04/19 10:28:46;;;;;;;1999.90;999.90;;;19.90;45.10;;;;;;5031135;28;20670;-69
2022/04/19 10:31:12;;;;;;;1999.90;999.90;;;20.10;46.80;;;;;;5035194;28;20410;-69
2022/04/19 10:33:48;;;;;;;1999.90;999.90;;;20.20;44.90;;;;;;5035032;28;20950;-69
2022/04/19 10:36:36;;;;;;;1999.90;999.90;;;20.30;44.10;;;;;;5034027;28;20438;-69
2022/04/19 10:39:11;;;;;;;1999.90;999.90;;;20.50;42.40;;;;;;5034268;28;20469;-67
2022/04/19 10:42:00;;;;;;;1999.90;999.90;;;20.50;40.70;;;;;;5034487;28;20445;-68
2022/04/19 10:44:31;;;;;;;1999.90;999.90;;;20.70;42.40;;;;;;5026610;28;20423;-69
2022/04/19 10:47:16;;;;;;;1999.90;999.90;;;21.00;43.20;;;;;;5034856;28;20756;-69
2022/04/19 10:49:50;;;;;;;1999.90;999.90;;;21.00;38.20;;;;;;5034097;28;20972;-69
2022/04/19 10:52:42;;;;;;;1999.90;999.90;;;21.10;37.00;;;;;;5034540;28;20407;-68
2022/04/19 10:55:22;;;;;;;1999.90;999.90;;;21.30;37.20;;;;;;5033854;28;20413;-68
2022/04/19 11:03:18;;;;;;;1999.90;999.90;;;21.30;30.80;;;;;;5012686;28;20464;-68
2022/04/19 11:05:52;;;;;;;1999.90;999.90;;;21.20;32.50;;;;;;5013603;28;20484;-68
2022/04/19 11:08:26;;;;;;;1999.90;999.90;;;21.30;30.70;;;;;;5015109;28;20425;-68
2022/04/19 11:10:52;;;;;;;1999.90;999.90;;;21.50;35.10;;;;;;5033972;28;20418;-68
2022/04/19 11:13:22;;;;;;;1999.90;999.90;;;21.60;33.30;;;;;;5033687;28;20403;-68
2022/04/19 11:15:59;;;;;;;1999.90;999.90;;;21.80;33.20;;;;;;5033732;28;20255;-68
2022/04/19 11:18:33;;;;;;;1999.90;999.90;;;22.10;32.60;;;;;;5033984;28;20453;-68
2022/04/19 11:21:01;;;;;;;1999.90;999.90;;;22.20;30.50;;;;;;5033848;28;20420;-68
2022/04/19 11:23:29;;;;;;;1999.90;999.90;;;22.20;28.80;;;;;;5033970;28;20407;-68
2022/04/19 11:25:56;;;;;;;1999.90;999.90;;;22.20;29.90;;;;;;5033335;28;20405;-68
2022/04/19 11:28:30;;;;;;;1999.90;999.90;;;22.30;30.80;;;;;;5033504;28;20484;-68
2022/04/19 11:30:55;;;;;;;1999.90;999.90;;;22.30;27.80;;;;;;5028479;28;20384;-68
2022/04/19 11:33:33;;;;;;;1999.90;999.90;;;22.10;28.50;;;;;;5033636;28;20428;-68
2022/04/19 11:36:10;;;;;;;1999.90;999.90;;;22.20;28.10;;;;;;5032716;28;20164;-68
2022/04/19 11:38:43;;;;;;;1999.90;999.90;;;22.30;28.30;;;;;;5033927;28;20546;-68
2022/04/19 11:46:46;;;;;;;1999.90;999.90;;;22.70;28.30;;;;;;5034075;28;20368;-68
2022/04/19 11:49:25;;;;;;;1999.90;999.90;;;22.90;28.80;;;;;;5033029;28;20977;-68
2022/04/19 11:51:54;;;;;;;1999.90;999.90;;;23.10;27.90;;;;;;5033528;28;20969;-68
2022/04/19 11:54:21;;;;;;;1999.90;999.90;;;23.80;27.20;;;;;;5032775;28;20411;-68
2022/04/19 11:56:52;;;;;;;1999.90;999.90;;;24.50;25.00;;;;;;5033179;28;20393;-68
2022/04/19 11:59:18;;;;;;;1999.90;999.90;;;25.20;19.80;;;;;;5033476;28;20488;-68
2022/04/19 12:01:49;;;;;;;1999.90;999.90;;;25.90;19.90;;;;;;5033284;28;20500;-68
2022/04/19 12:04:15;;;;;;;1999.90;999.90;;;26.80;17.60;;;;;;5032410;28;20505;-68
2022/04/19 12:07:02;;;;;;;1999.90;999.90;;;27.00;15.70;;;;;;5033446;28;20418;-69
2022/04/19 12:09:32;;;;;;;1999.90;999.90;;;28.00;16.70;;;;;;5033442;28;20498;-69
2022/04/19 12:11:59;;;;;;;1999.90;999.90;;;28.60;13.70;;;;;;5033137;28;20402;-68
2022/04/19 12:14:29;;;;;;;1999.90;999.90;;;29.10;11.80;;;;;;5032699;28;20407;-69
2022/04/19 12:16:57;;;;;;;1999.90;999.90;;;28.00;12.90;;;;;;5032936;28;20502;-68
2022/04/19 12:19:42;;;;;;;1999.90;999.90;;;27.40;12.50;;;;;;5032537;28;20519;-69
2022/04/19 12:22:22;;;;;;;1999.90;999.90;;;27.70;12.80;;;;;;5032249;28;20399;-68
2022/04/19 12:25:00;;;;;;;1999.90;999.90;;;28.50;13.20;;;;;;5032559;28;20391;-69
2022/04/19 12:27:29;;;;;;;1999.90;999.90;;;29.30;8.70;;;;;;5032653;28;20472;-68
2022/04/19 12:29:58;;;;;;;1999.90;999.90;;;29.80;7.80;;;;;;5032997;28;20503;-68
2022/04/19 12:32:25;;;;;;;1999.90;999.90;;;30.30;6.60;;;;;;5032794;28;20418;-68
2022/04/19 12:34:53;;;;;;;1999.90;999.90;;;30.50;7.00;;;;;;5032046;28;20549;-69
2022/04/19 12:37:21;;;;;;;1999.90;999.90;;;30.80;6.90;;;;;;5032987;28;20993;-68
2022/04/19 12:40:03;;;;;;;1999.90;999.90;;;30.90;6.40;;;;;;5032755;28;20868;-68
2022/04/19 12:42:29;;;;;;;1999.90;999.90;;;31.10;5.30;;;;;;5032250;28;20453;-68
2022/04/19 12:45:10;;;;;;;1999.90;999.90;;;31.10;4.60;;;;;;5032178;28;20816;-68
2022/04/19 12:47:37;;;;;;;1999.90;999.90;;;31.00;7.60;;;;;;5032876;28;20172;-68
2022/04/19 12:50:11;;;;;;;1999.90;999.90;;;31.00;3.50;;;;;;5032366;28;20418;-68
2022/04/19 12:52:37;;;;;;;1999.90;999.90;;;31.10;5.10;;;;;;5032018;28;20411;-69